Time;durP1;ratioP1;P1;durP2;ratioP2;P2;SDS_P1;SDS_P2;PMS_P1;PMS_P2;Temp;Humidity;BMP_temperature;BMP_pressure;BME280_temperature;BME280_humidity;BME280_pressure;Samples;Min_cycle;Max_cycle;Signal;HPM_P1;HPM_P2
2023/06/22 00:01:49;;;;;;;13.32;11.93;;;19.50;99.90;;;;;;5066009;28;20428;-56
2023/06/22 00:04:14;;;;;;;13.15;11.70;;;19.60;99.90;;;;;;5065854;28;20029;-56
2023/06/22 00:06:40;;;;;;;16.70;12.38;;;19.60;99.90;;;;;;5050779;28;20291;-55
2023/06/22 00:09:06;;;;;;;14.15;12.65;;;19.60;99.90;;;;;;5049885;28;20041;-55
2023/06/22 00:11:33;;;;;;;13.60;11.50;;;19.50;99.90;;;;;;5050356;28;20013;-55
2023/06/22 00:13:59;;;;;;;16.67;13.48;;;19.50;99.90;;;;;;5050212;28;20100;-55
2023/06/22 00:16:25;;;;;;;14.35;12.85;;;19.40;99.90;;;;;;5050107;28;20024;-55
2023/06/22 00:18:50;;;;;;;16.35;13.45;;;19.30;99.90;;;;;;5049283;28;20029;-55
2023/06/22 00:21:16;;;;;;;15.32;13.73;;;19.30;99.90;;;;;;5050095;28;20025;-55
2023/06/22 00:23:43;;;;;;;15.35;13.45;;;19.40;99.90;;;;;;5050261;28;20029;-55
2023/06/22 00:26:08;;;;;;;14.55;12.98;;;19.30;99.90;;;;;;5050330;28;20097;-55
2023/06/22 00:28:34;;;;;;;15.82;12.65;;;19.20;99.90;;;;;;5049787;28;20479;-55
2023/06/22 00:31:00;;;;;;;15.15;13.55;;;19.20;99.90;;;;;;5049941;28;20021;-55
2023/06/22 00:33:28;;;;;;;17.52;12.80;;;19.10;99.90;;;;;;5050414;28;20399;-55
2023/06/22 00:35:53;;;;;;;14.65;12.95;;;19.10;99.90;;;;;;5050047;28;20020;-55
2023/06/22 00:38:19;;;;;;;17.90;13.23;;;19.10;99.90;;;;;;5065349;28;20376;-56
2023/06/22 00:40:45;;;;;;;15.10;13.43;;;19.10;99.90;;;;;;5049874;28;20017;-55
2023/06/22 00:43:10;;;;;;;15.68;13.20;;;19.00;99.90;;;;;;5065117;28;20059;-56
2023/06/22 00:45:36;;;;;;;13.93;12.43;;;19.00;99.90;;;;;;5049829;28;20032;-55
2023/06/22 00:48:02;;;;;;;16.27;14.00;;;19.00;99.90;;;;;;5049609;28;20021;-54
2023/06/22 00:50:33;;;;;;;15.70;14.05;;;19.00;99.90;;;;;;5049208;28;20025;-54
2023/06/22 00:53:08;;;;;;;17.73;14.48;;;19.00;99.90;;;;;;5049654;28;20040;-55
2023/06/22 00:55:38;;;;;;;17.70;15.40;;;19.10;99.90;;;;;;5049689;28;20646;-55
2023/06/22 00:58:07;;;;;;;16.42;14.25;;;19.10;99.90;;;;;;5049895;28;20031;-55
2023/06/22 01:00:33;;;;;;;14.45;12.85;;;19.00;99.90;;;;;;5049244;28;20025;-56
2023/06/22 01:02:59;;;;;;;14.55;13.05;;;19.00;99.90;;;;;;5049807;28;20033;-56
2023/06/22 01:05:24;;;;;;;16.02;13.25;;;18.90;99.90;;;;;;5049593;28;20115;-55
2023/06/22 01:07:59;;;;;;;17.35;13.85;;;18.80;99.90;;;;;;5049187;28;20111;-55
2023/06/22 01:10:38;;;;;;;14.32;12.82;;;18.80;99.90;;;;;;5049144;28;20471;-55
2023/06/22 01:13:18;;;;;;;17.90;13.43;;;18.70;99.90;;;;;;5049767;28;20123;-55
2023/06/22 01:15:56;;;;;;;15.85;12.80;;;18.70;99.90;;;;;;5029885;28;20495;-55
2023/06/22 01:18:25;;;;;;;15.95;13.32;;;18.70;99.90;;;;;;5046883;28;20040;-55
2023/06/22 01:20:53;;;;;;;16.80;13.85;;;18.70;99.90;;;;;;5048854;28;20036;-55
2023/06/22 01:24:02;;;;;;;17.58;14.70;;;18.70;99.90;;;;;;5043103;28;20041;-55
2023/06/22 01:26:46;;;;;;;15.50;13.30;;;18.60;99.90;;;;;;5046703;28;20032;-55
2023/06/22 01:29:14;;;;;;;15.77;13.65;;;18.60;99.90;;;;;;5047710;28;20145;-56
2023/06/22 01:31:41;;;;;;;14.90;13.30;;;18.50;99.90;;;;;;5051357;28;20074;-55
2023/06/22 01:34:08;;;;;;;15.77;13.10;;;18.40;99.90;;;;;;5052909;28;20019;-55
2023/06/22 01:36:35;;;;;;;16.25;13.90;;;18.40;99.90;;;;;;5053225;28;20515;-55
2023/06/22 01:39:03;;;;;;;14.00;12.50;;;18.30;99.90;;;;;;5052905;28;20041;-55
2023/06/22 01:41:31;;;;;;;14.80;12.98;;;18.30;99.90;;;;;;5064465;28;20110;-55
2023/06/22 01:43:57;;;;;;;15.57;13.02;;;18.20;99.90;;;;;;5068291;28;20028;-55
2023/06/22 01:46:23;;;;;;;14.55;13.00;;;18.20;99.90;;;;;;5071744;28;20093;-55
2023/06/22 01:48:50;;;;;;;13.98;12.48;;;18.20;99.90;;;;;;5072598;28;20483;-55
2023/06/22 01:51:16;;;;;;;17.75;14.75;;;18.20;99.90;;;;;;5065659;28;20494;-55
2023/06/22 01:53:42;;;;;;;19.33;13.70;;;18.20;99.90;;;;;;5058572;28;20024;-55
2023/06/22 01:56:08;;;;;;;16.15;13.75;;;18.30;99.90;;;;;;5051475;28;20033;-55
2023/06/22 01:58:36;;;;;;;15.52;13.82;;;18.20;99.90;;;;;;5053071;28;20259;-57
2023/06/22 02:01:13;;;;;;;15.40;13.45;;;18.20;99.90;;;;;;5052725;28;20021;-55
2023/06/22 02:03:49;;;;;;;15.15;13.55;;;18.10;99.90;;;;;;5051542;28;20025;-57
2023/06/22 02:06:27;;;;;;;16.88;14.52;;;18.20;99.90;;;;;;5052749;28;20051;-55
2023/06/22 02:09:00;;;;;;;15.93;13.95;;;18.20;99.90;;;;;;5051969;28;20059;-57
2023/06/22 02:11:27;;;;;;;15.70;13.30;;;18.20;99.90;;;;;;5051333;28;20013;-57
2023/06/22 02:13:53;;;;;;;16.80;14.27;;;18.20;99.90;;;;;;5052633;28;20017;-55
2023/06/22 02:16:19;;;;;;;15.38;13.30;;;18.10;99.90;;;;;;5052555;28;20071;-57
2023/06/22 02:18:50;;;;;;;17.95;13.40;;;18.00;99.90;;;;;;5050456;28;20102;-56
2023/06/22 02:21:16;;;;;;;15.70;13.07;;;17.90;99.90;;;;;;5052431;28;20028;-55
2023/06/22 02:23:42;;;;;;;15.68;12.77;;;17.90;99.90;;;;;;5052368;28;20099;-55
2023/06/22 02:26:08;;;;;;;15.13;13.50;;;17.80;99.90;;;;;;5052125;28;20029;-55
2023/06/22 02:28:33;;;;;;;16.48;13.98;;;17.70;99.90;;;;;;5052175;28;20107;-56
2023/06/22 02:30:59;;;;;;;16.60;13.77;;;17.70;99.90;;;;;;5051485;28;20022;-55
2023/06/22 02:33:25;;;;;;;15.13;13.55;;;17.70;99.90;;;;;;5051529;28;20031;-55
2023/06/22 02:35:50;;;;;;;15.50;13.50;;;17.70;99.90;;;;;;5052165;28;20017;-55
2023/06/22 02:38:17;;;;;;;17.48;14.82;;;17.60;99.90;;;;;;5051889;28;20021;-55
2023/06/22 02:40:42;;;;;;;16.75;13.80;;;17.70;99.90;;;;;;5051706;28;20029;-57
2023/06/22 02:43:08;;;;;;;15.35;13.73;;;17.70;99.90;;;;;;5051598;28;20035;-56
2023/06/22 02:45:33;;;;;;;15.52;13.52;;;17.60;99.90;;;;;;5050974;28;20075;-55
2023/06/22 02:47:59;;;;;;;15.63;13.52;;;17.60;99.90;;;;;;5051979;28;20021;-55
2023/06/22 02:50:24;;;;;;;17.52;14.55;;;17.60;99.90;;;;;;5051143;28;20103;-56
2023/06/22 02:52:50;;;;;;;16.08;14.00;;;17.60;99.90;;;;;;5051935;28;20420;-55
2023/06/22 02:55:16;;;;;;;15.88;13.93;;;17.60;99.90;;;;;;5051354;28;20031;-55
2023/06/22 02:57:43;;;;;;;16.40;14.02;;;17.60;99.90;;;;;;5051435;28;20056;-55
2023/06/22 03:00:19;;;;;;;17.58;15.38;;;17.60;99.90;;;;;;5050794;28;20021;-56
2023/06/22 03:02:46;;;;;;;19.88;16.02;;;17.60;99.90;;;;;;5050253;28;20056;-56
2023/06/22 03:05:13;;;;;;;17.33;14.50;;;17.60;99.90;;;;;;5051660;28;20032;-56
2023/06/22 03:07:42;;;;;;;17.45;14.75;;;17.70;99.90;;;;;;5051348;28;20044;-55
2023/06/22 03:10:09;;;;;;;19.45;15.40;;;17.70;99.90;;;;;;5050898;28;20522;-56
2023/06/22 03:12:35;;;;;;;22.67;15.63;;;17.70;99.90;;;;;;5051089;28;20479;-56
2023/06/22 03:15:01;;;;;;;16.02;14.30;;;17.70;99.90;;;;;;5051006;28;20139;-56
2023/06/22 03:17:26;;;;;;;17.80;15.27;;;17.80;99.90;;;;;;5049850;28;20043;-56
2023/06/22 03:19:52;;;;;;;18.80;14.85;;;17.70;99.90;;;;;;5050303;28;20503;-55
2023/06/22 03:22:17;;;;;;;19.00;15.43;;;17.80;99.90;;;;;;5050709;28;20233;-56
2023/06/22 03:24:43;;;;;;;18.20;14.63;;;17.70;99.90;;;;;;5050431;28;20479;-56
2023/06/22 03:27:08;;;;;;;17.42;14.43;;;17.70;99.90;;;;;;5050355;28;20024;-56
2023/06/22 03:29:34;;;;;;;17.85;15.00;;;17.80;99.90;;;;;;5049588;28;20463;-56
2023/06/22 03:31:59;;;;;;;22.73;15.15;;;17.70;99.90;;;;;;5050674;28;20413;-56
2023/06/22 03:34:25;;;;;;;17.85;14.60;;;17.70;99.90;;;;;;5050530;28;20064;-56
2023/06/22 03:36:51;;;;;;;20.80;14.68;;;17.60;99.90;;;;;;5050614;28;20033;-56
2023/06/22 03:39:16;;;;;;;16.98;14.00;;;17.70;99.90;;;;;;5050172;28;20021;-56
2023/06/22 03:41:42;;;;;;;17.20;12.95;;;17.70;99.90;;;;;;5050397;28;20028;-56
2023/06/22 03:44:12;;;;;;;15.82;14.20;;;17.70;99.90;;;;;;5050356;28;20021;-56
2023/06/22 03:46:37;;;;;;;17.37;13.97;;;17.70;99.90;;;;;;5050040;28;20112;-56
2023/06/22 03:49:03;;;;;;;17.08;14.10;;;17.70;99.90;;;;;;5048952;28;20298;-56
2023/06/22 03:51:30;;;;;;;16.10;13.80;;;17.80;99.90;;;;;;5049686;28;20028;-56
2023/06/22 03:53:56;;;;;;;16.48;13.43;;;17.80;99.90;;;;;;5046894;28;20499;-56
2023/06/22 13:27:28;;;;;;;13.00;8.88;;;31.40;77.10;;;;;;5072370;28;20142;-59
2023/06/22 13:29:53;;;;;;;9.45;8.55;;;31.10;77.60;;;;;;5086549;28;20100;-57
2023/06/22 13:32:19;;;;;;;11.30;8.40;;;30.90;78.10;;;;;;5112755;28;20478;-57
2023/06/22 13:34:44;;;;;;;11.57;9.52;;;30.90;78.30;;;;;;5122069;27;20066;-57
2023/06/22 13:37:10;;;;;;;10.45;9.35;;;31.10;78.20;;;;;;5143455;27;20075;-59
2023/06/22 13:39:35;;;;;;;10.32;8.13;;;31.20;77.60;;;;;;5150118;27;20110;-59
2023/06/22 13:42:01;;;;;;;8.98;8.00;;;31.10;78.10;;;;;;5092836;27;20081;-57
2023/06/22 13:44:28;;;;;;;8.95;8.10;;;31.10;78.60;;;;;;5112622;28;20398;-59
2023/06/22 13:46:54;;;;;;;10.18;8.63;;;31.30;78.70;;;;;;5119328;27;20035;-59
2023/06/22 13:49:21;;;;;;;8.98;8.10;;;31.20;78.70;;;;;;5108754;28;20055;-59
2023/06/22 13:51:48;;;;;;;8.90;8.02;;;31.20;79.10;;;;;;5088411;28;20028;-59
2023/06/22 13:54:13;;;;;;;14.85;8.55;;;31.20;78.70;;;;;;5089309;28;20107;-59
2023/06/22 13:56:39;;;;;;;11.63;8.80;;;31.40;79.20;;;;;;5086666;28;20111;-59
2023/06/22 13:59:04;;;;;;;12.40;8.63;;;31.40;78.20;;;;;;5085865;28;20028;-59
2023/06/22 14:01:30;;;;;;;9.25;8.45;;;31.20;77.90;;;;;;5008619;28;20049;-59
2023/06/22 14:03:55;;;;;;;14.25;8.73;;;31.00;79.30;;;;;;4688220;29;43642;-59
2023/06/22 14:06:21;;;;;;;11.60;8.85;;;30.80;79.20;;;;;;4601105;30;20580;-59
2023/06/22 14:08:46;;;;;;;10.38;8.63;;;30.50;80.10;;;;;;4472149;31;20067;-59
2023/06/22 14:11:12;;;;;;;9.90;8.90;;;30.30;80.40;;;;;;4324565;32;26166;-59
2023/06/22 14:13:37;;;;;;;11.25;9.32;;;30.00;81.20;;;;;;4288130;33;20520;-59
2023/06/22 14:16:04;;;;;;;12.63;8.60;;;29.70;81.50;;;;;;4310878;33;20126;-59
2023/06/22 14:18:29;;;;;;;9.95;8.95;;;29.50;82.30;;;;;;4288599;33;20045;-61
2023/06/22 14:20:55;;;;;;;10.40;8.23;;;29.30;82.50;;;;;;4288878;33;20052;-59
2023/06/22 14:23:20;;;;;;;9.10;8.30;;;29.30;83.80;;;;;;4288816;33;20524;-59
2023/06/22 14:25:46;;;;;;;9.75;8.75;;;29.30;84.20;;;;;;4288295;33;20581;-59
2023/06/22 14:28:11;;;;;;;11.70;8.68;;;29.20;84.40;;;;;;4288871;33;20049;-61
2023/06/22 14:30:37;;;;;;;10.23;8.57;;;29.10;84.80;;;;;;4288342;33;20536;-59
2023/06/22 14:33:03;;;;;;;10.40;8.52;;;29.00;85.10;;;;;;4288552;33;20157;-60
2023/06/22 14:35:28;;;;;;;9.63;8.63;;;29.00;85.00;;;;;;4288087;33;20061;-60
2023/06/22 14:37:53;;;;;;;11.10;8.82;;;29.10;84.80;;;;;;4288126;33;20140;-59
2023/06/22 14:40:19;;;;;;;10.30;9.30;;;29.20;84.50;;;;;;4288576;33;20065;-59
2023/06/22 14:42:44;;;;;;;9.98;9.00;;;29.40;84.20;;;;;;4288552;33;20045;-59
2023/06/22 14:45:10;;;;;;;12.55;9.30;;;29.50;84.40;;;;;;4288467;33;20072;-61
2023/06/22 14:47:36;;;;;;;13.07;9.10;;;29.50;85.10;;;;;;4287910;33;20050;-60
2023/06/22 14:50:01;;;;;;;12.50;9.90;;;29.40;84.90;;;;;;4288473;33;20069;-61
2023/06/22 14:52:27;;;;;;;10.05;9.05;;;29.30;84.50;;;;;;4288204;33;20037;-60
2023/06/22 14:54:53;;;;;;;16.20;9.20;;;29.10;85.10;;;;;;4288424;33;20308;-60
2023/06/22 14:57:19;;;;;;;10.13;9.10;;;29.10;85.30;;;;;;4287859;33;20217;-60
2023/06/22 14:59:46;;;;;;;12.57;9.30;;;29.20;84.60;;;;;;4288250;33;20392;-60
2023/06/22 15:02:12;;;;;;;10.05;9.02;;;29.20;84.50;;;;;;4326823;32;20570;-59
2023/06/22 15:04:37;;;;;;;11.50;9.18;;;29.30;84.40;;;;;;4347868;32;20060;-59
2023/06/22 15:07:03;;;;;;;11.13;9.75;;;29.30;84.30;;;;;;4325045;32;20057;-59
2023/06/22 15:09:29;;;;;;;12.95;10.02;;;29.30;84.20;;;;;;4350371;32;20489;-59
2023/06/22 15:11:54;;;;;;;11.68;9.48;;;29.00;84.50;;;;;;4377062;32;25259;-59
2023/06/22 15:14:20;;;;;;;11.25;10.05;;;28.90;84.80;;;;;;4349653;32;20396;-59
2023/06/22 15:16:45;;;;;;;13.85;9.35;;;28.90;85.10;;;;;;4345920;32;20130;-59
2023/06/22 15:19:12;;;;;;;9.90;8.90;;;28.90;85.80;;;;;;4346477;33;20051;-59
2023/06/22 15:21:38;;;;;;;9.93;8.52;;;28.80;84.80;;;;;;4346349;33;20054;-59
2023/06/22 15:24:04;;;;;;;12.23;8.95;;;28.90;85.30;;;;;;4345108;33;20047;-60
2023/06/22 15:26:30;;;;;;;10.52;9.48;;;28.90;85.80;;;;;;4345686;32;20052;-59
2023/06/22 15:28:55;;;;;;;10.95;8.77;;;28.80;85.20;;;;;;4345924;33;20047;-59
2023/06/22 15:31:21;;;;;;;11.20;9.77;;;28.80;85.00;;;;;;4346017;33;20404;-59
2023/06/22 15:33:47;;;;;;;10.43;9.05;;;28.70;85.20;;;;;;4346186;32;20518;-61
2023/06/22 15:36:15;;;;;;;10.00;8.50;;;28.70;85.40;;;;;;4338381;33;20040;-59
2023/06/22 15:38:41;;;;;;;10.80;9.00;;;28.70;85.70;;;;;;4342255;32;20135;-60
2023/06/22 15:41:06;;;;;;;11.70;8.90;;;28.60;85.30;;;;;;4325544;33;20045;-60
2023/06/22 15:43:32;;;;;;;10.32;8.30;;;28.40;85.50;;;;;;4323080;33;20039;-60
2023/06/22 15:45:57;;;;;;;11.57;9.02;;;28.40;85.50;;;;;;4330508;33;20044;-59
2023/06/22 15:48:23;;;;;;;9.02;8.13;;;28.20;85.60;;;;;;4330931;33;20522;-60
2023/06/22 15:50:49;;;;;;;12.45;9.18;;;28.00;86.10;;;;;;4330243;33;20056;-59
2023/06/22 15:53:14;;;;;;;10.27;9.15;;;27.90;86.40;;;;;;4330870;33;20044;-59
2023/06/22 15:55:40;;;;;;;11.18;9.05;;;27.80;86.80;;;;;;4330666;33;20046;-59
2023/06/22 15:58:07;;;;;;;13.60;8.88;;;27.70;87.20;;;;;;4328656;33;20062;-60
2023/06/22 16:00:32;;;;;;;12.88;8.65;;;27.50;87.70;;;;;;4316086;33;20579;-58
2023/06/22 16:02:58;;;;;;;10.52;9.38;;;27.40;87.60;;;;;;4431484;31;20053;-58
2023/06/22 16:05:23;;;;;;;12.55;8.70;;;27.30;88.20;;;;;;4522245;31;20049;-59
2023/06/22 16:07:49;;;;;;;11.02;9.10;;;27.20;89.20;;;;;;4584163;31;20048;-58
2023/06/22 16:10:16;;;;;;;10.98;8.65;;;27.10;88.10;;;;;;4621976;30;20082;-61
2023/06/22 16:12:43;;;;;;;14.25;9.10;;;27.00;88.80;;;;;;4650542;30;20046;-59
2023/06/22 16:15:09;;;;;;;10.32;9.05;;;26.90;88.70;;;;;;4645636;30;20444;-59
2023/06/22 16:17:37;;;;;;;11.25;9.35;;;26.80;89.00;;;;;;4645319;30;20065;-59
2023/06/22 16:20:07;;;;;;;12.07;9.57;;;26.80;89.50;;;;;;4645774;30;20058;-60
2023/06/22 16:22:33;;;;;;;12.70;9.43;;;26.70;89.30;;;;;;4645757;30;20046;-59
2023/06/22 16:24:58;;;;;;;10.45;8.48;;;26.60;89.50;;;;;;4645724;30;20043;-60
2023/06/22 16:27:24;;;;;;;10.80;9.13;;;26.50;89.90;;;;;;4644222;30;20504;-59
2023/06/22 16:29:50;;;;;;;11.82;9.88;;;26.40;90.00;;;;;;4644231;30;20137;-60
2023/06/22 16:32:17;;;;;;;9.63;8.73;;;26.40;90.00;;;;;;4644513;30;20030;-60
2023/06/22 16:34:45;;;;;;;11.90;9.20;;;26.30;90.00;;;;;;4643186;30;20042;-60
2023/06/22 16:37:11;;;;;;;10.90;9.10;;;26.20;90.10;;;;;;4644825;30;20031;-59
2023/06/22 16:39:37;;;;;;;12.43;8.82;;;26.10;90.30;;;;;;4645647;30;20031;-58
2023/06/22 16:42:02;;;;;;;13.30;9.88;;;26.10;90.90;;;;;;4645607;30;20093;-58
2023/06/22 16:44:28;;;;;;;16.05;10.63;;;25.90;91.40;;;;;;4645438;30;20041;-58
2023/06/22 16:46:53;;;;;;;14.52;10.18;;;25.70;93.00;;;;;;4644891;30;20035;-59
2023/06/22 16:49:19;;;;;;;12.77;10.32;;;25.50;93.60;;;;;;4645230;30;20395;-58
2023/06/22 16:51:44;;;;;;;12.45;10.05;;;25.30;95.60;;;;;;4645015;30;20102;-58
2023/06/22 16:54:10;;;;;;;14.95;11.13;;;25.10;96.50;;;;;;4657856;30;20031;-58
2023/06/22 16:56:36;;;;;;;12.07;10.63;;;24.90;96.60;;;;;;4644608;30;20614;-58
2023/06/22 16:59:01;;;;;;;13.20;11.88;;;24.70;98.60;;;;;;4657602;30;20110;-58
2023/06/22 17:01:29;;;;;;;12.43;10.93;;;24.50;99.90;;;;;;4647026;30;20488;-57
2023/06/22 17:04:08;;;;;;;12.63;11.32;;;24.40;99.90;;;;;;4731196;30;20141;-59
2023/06/22 17:06:33;;;;;;;16.67;12.27;;;24.30;99.90;;;;;;4797366;29;20160;-57
2023/06/22 17:09:02;;;;;;;17.77;12.82;;;24.10;99.90;;;;;;4814795;29;20121;-59
2023/06/22 17:11:28;;;;;;;16.08;12.30;;;24.00;99.90;;;;;;4816810;29;20038;-58
2023/06/22 17:13:54;;;;;;;14.02;12.63;;;23.80;99.90;;;;;;4802551;29;20494;-58
2023/06/22 17:16:22;;;;;;;19.50;12.50;;;23.70;99.90;;;;;;4802042;29;20031;-58
2023/06/22 17:18:48;;;;;;;22.42;13.45;;;23.60;99.90;;;;;;4801330;29;20096;-59
2023/06/22 17:21:21;;;;;;;16.48;10.38;;;23.50;99.90;;;;;;4791154;29;20035;-61
2023/06/22 17:23:47;;;;;;;27.63;5.43;;;22.60;99.90;;;;;;4784402;29;20023;-59
2023/06/22 17:26:14;;;;;;;37.45;4.72;;;21.50;99.90;;;;;;4783923;29;20031;-58
2023/06/22 17:28:50;;;;;;;61.85;5.85;;;20.00;99.90;;;;;;4788138;29;20023;-57
2023/06/22 17:31:17;;;;;;;22.80;3.28;;;18.90;99.90;;;;;;4779917;29;20087;-56
2023/06/22 17:33:43;;;;;;;10.55;3.58;;;18.20;99.90;;;;;;4794648;29;20064;-57
2023/06/22 17:36:15;;;;;;;17.20;5.47;;;17.90;99.90;;;;;;4801587;29;20031;-59
2023/06/22 17:38:40;;;;;;;14.40;5.30;;;17.90;99.90;;;;;;4797034;29;20027;-60
2023/06/22 17:41:06;;;;;;;19.77;6.60;;;17.90;99.90;;;;;;4784188;29;20130;-60
2023/06/22 17:43:32;;;;;;;20.25;6.80;;;18.00;99.90;;;;;;4784423;29;20621;-60
2023/06/22 17:45:59;;;;;;;20.05;7.68;;;17.90;99.90;;;;;;4783556;29;20044;-60
2023/06/22 17:48:25;;;;;;;12.50;7.38;;;18.00;99.90;;;;;;4783993;30;20243;-59
2023/06/22 17:50:51;;;;;;;18.00;7.70;;;18.10;99.90;;;;;;4812758;29;20039;-59
2023/06/22 17:53:17;;;;;;;26.40;8.70;;;18.20;99.90;;;;;;4813045;29;20035;-60
2023/06/22 17:55:42;;;;;;;26.60;8.00;;;18.30;99.90;;;;;;4783540;29;20138;-59
2023/06/22 17:58:08;;;;;;;14.27;6.18;;;18.20;99.90;;;;;;4783904;29;20031;-59
2023/06/22 18:00:36;;;;;;;14.05;4.60;;;18.10;99.90;;;;;;4783653;29;20093;-59
2023/06/22 18:03:02;;;;;;;11.30;4.95;;;17.90;99.90;;;;;;4807717;29;20061;-59
2023/06/22 18:05:28;;;;;;;8.70;3.58;;;18.00;99.90;;;;;;4855644;29;20568;-60
2023/06/22 18:07:57;;;;;;;8.75;3.85;;;18.00;99.90;;;;;;4868742;29;20096;-60
2023/06/22 18:10:25;;;;;;;8.82;4.60;;;17.90;99.90;;;;;;4891015;29;20043;-60
2023/06/22 18:12:51;;;;;;;13.85;5.85;;;17.80;99.90;;;;;;4908277;29;20072;-59
2023/06/22 18:15:17;;;;;;;10.45;5.40;;;17.80;99.90;;;;;;4915459;29;20534;-59
2023/06/22 18:17:42;;;;;;;12.55;5.30;;;17.80;99.90;;;;;;4915119;29;20032;-59
2023/06/22 18:20:10;;;;;;;10.50;4.60;;;17.80;99.90;;;;;;4915345;29;20043;-59
2023/06/22 18:22:36;;;;;;;7.57;4.00;;;17.80;99.90;;;;;;4915491;29;20020;-59
2023/06/22 18:25:03;;;;;;;9.43;4.15;;;17.80;99.90;;;;;;4915533;29;20506;-59
2023/06/22 18:27:29;;;;;;;9.57;4.05;;;17.80;99.90;;;;;;4914759;29;20036;-59
2023/06/22 18:29:55;;;;;;;10.40;4.25;;;17.80;99.90;;;;;;4915036;29;20360;-59
2023/06/22 18:32:21;;;;;;;8.50;3.88;;;17.80;99.90;;;;;;4915385;29;20028;-59
2023/06/22 18:34:46;;;;;;;8.10;3.78;;;17.80;99.90;;;;;;4915202;29;20408;-59
2023/06/22 18:37:15;;;;;;;8.25;3.72;;;17.70;99.90;;;;;;4915085;29;20483;-59
2023/06/22 18:39:43;;;;;;;10.43;6.25;;;17.60;99.90;;;;;;4915681;29;20190;-59
2023/06/22 18:42:10;;;;;;;11.48;6.50;;;17.70;99.90;;;;;;4915539;29;20028;-59
2023/06/22 18:44:40;;;;;;;13.25;7.93;;;17.70;99.90;;;;;;4898248;29;20039;-59
2023/06/22 18:47:06;;;;;;;;;;;17.80;99.90;;;;;;4915074;29;20039;-59
2023/06/22 18:49:34;;;;;;;21.98;12.70;;;17.80;99.90;;;;;;4914976;29;19911;-59
2023/06/22 18:52:08;;;;;;;18.35;12.25;;;17.90;99.90;;;;;;4915553;29;20024;-59
2023/06/22 18:54:47;;;;;;;20.05;14.48;;;18.00;99.90;;;;;;4915289;29;20387;-59
2023/06/22 18:57:15;;;;;;;32.67;18.40;;;18.00;99.90;;;;;;4914901;29;20016;-59
2023/06/22 18:59:58;;;;;;;29.10;17.17;;;18.00;99.90;;;;;;4915191;29;20040;-58
2023/06/22 19:02:32;;;;;;;23.67;15.75;;;18.00;99.90;;;;;;4935692;28;20098;-59
2023/06/22 19:05:13;;;;;;;27.33;15.05;;;18.00;99.90;;;;;;4971860;28;20041;-59
2023/06/22 19:08:02;;;;;;;24.02;14.90;;;18.10;99.90;;;;;;4980740;28;20084;-59
2023/06/22 19:10:38;;;;;;;27.10;16.00;;;18.00;99.90;;;;;;5009489;28;20040;-59
2023/06/22 19:13:15;;;;;;;24.73;15.45;;;18.00;99.90;;;;;;5029810;28;20096;-59
2023/06/22 19:15:42;;;;;;;28.92;17.00;;;18.10;99.90;;;;;;5030003;28;20484;-59
2023/06/22 19:18:39;;;;;;;23.02;16.38;;;18.10;99.90;;;;;;5012738;28;20480;-59
2023/06/22 19:21:10;;;;;;;23.58;14.90;;;18.10;99.90;;;;;;5031119;28;20036;-59
2023/06/22 19:23:38;;;;;;;18.10;13.65;;;18.10;99.90;;;;;;5030464;28;20097;-58
2023/06/22 19:26:15;;;;;;;25.65;15.18;;;18.20;99.90;;;;;;5030124;28;20558;-59
2023/06/22 19:28:48;;;;;;;22.33;14.10;;;18.10;99.90;;;;;;5030303;28;20036;-59
2023/06/22 19:31:14;;;;;;;22.08;14.60;;;18.10;99.90;;;;;;5030025;28;20021;-58
2023/06/22 19:33:40;;;;;;;16.90;12.77;;;18.10;99.90;;;;;;5045297;28;20515;-58
2023/06/22 19:36:07;;;;;;;20.70;13.48;;;18.20;99.90;;;;;;5029888;28;20068;-58
2023/06/22 19:38:33;;;;;;;22.58;13.88;;;18.20;99.90;;;;;;5043947;28;20556;-58
2023/06/22 19:40:59;;;;;;;19.38;13.23;;;18.30;99.90;;;;;;5024560;28;20037;-58
2023/06/22 19:43:31;;;;;;;31.40;18.58;;;18.20;99.90;;;;;;5028879;28;20450;-58
2023/06/22 19:45:57;;;;;;;29.17;19.58;;;18.30;99.90;;;;;;5028397;28;20033;-58
2023/06/22 19:48:28;;;;;;;38.72;23.67;;;18.30;99.90;;;;;;5028420;28;20083;-58
2023/06/22 19:50:55;;;;;;;31.90;21.08;;;18.30;99.90;;;;;;5028604;28;20122;-58
2023/06/22 19:53:21;;;;;;;37.00;21.98;;;18.30;99.90;;;;;;5028760;28;20384;-59
2023/06/22 19:55:48;;;;;;;34.72;18.95;;;18.30;99.90;;;;;;5028389;28;20092;-59
2023/06/22 19:58:18;;;;;;;28.05;14.68;;;18.10;99.90;;;;;;5028751;28;20029;-59
2023/06/22 20:00:54;;;;;;;30.05;13.40;;;18.00;99.90;;;;;;5029923;28;20372;-57
2023/06/22 20:03:27;;;;;;;24.95;13.35;;;17.90;99.90;;;;;;5042732;28;20133;-58
2023/06/22 20:05:53;;;;;;;19.58;12.38;;;17.90;99.90;;;;;;5063698;28;20056;-59
2023/06/22 20:08:20;;;;;;;20.02;11.88;;;17.90;99.90;;;;;;5069499;28;20063;-59
2023/06/22 20:10:45;;;;;;;17.15;11.07;;;17.90;99.90;;;;;;5069670;28;20399;-59
2023/06/22 20:13:15;;;;;;;15.93;9.82;;;17.90;99.90;;;;;;5069552;28;20024;-59
2023/06/22 20:15:42;;;;;;;17.23;10.48;;;18.00;99.90;;;;;;5069160;28;20610;-59
2023/06/22 20:18:09;;;;;;;17.58;10.75;;;18.00;99.90;;;;;;5069616;28;20062;-59
2023/06/22 20:20:36;;;;;;;21.35;11.73;;;18.10;99.90;;;;;;5069069;28;20107;-59
2023/06/22 20:23:05;;;;;;;25.67;13.35;;;18.00;99.90;;;;;;5050318;28;20372;-58
2023/06/22 20:25:35;;;;;;;21.60;13.05;;;18.00;99.90;;;;;;5067373;28;20081;-59
2023/06/22 20:28:13;;;;;;;18.90;10.98;;;18.00;99.90;;;;;;5067131;28;20043;-58
2023/06/22 20:30:40;;;;;;;18.20;11.05;;;18.00;99.90;;;;;;5068604;28;20514;-58
2023/06/22 20:33:25;;;;;;;23.25;10.88;;;17.90;99.90;;;;;;5069331;28;20075;-58
2023/06/22 20:35:51;;;;;;;18.58;9.57;;;17.90;99.90;;;;;;5025476;28;20328;-58
2023/06/22 20:38:17;;;;;;;12.85;8.30;;;17.80;99.90;;;;;;5026202;28;20030;-58
2023/06/22 20:40:42;;;;;;;18.40;8.00;;;17.80;99.90;;;;;;5058315;28;20234;-58
2023/06/22 20:43:09;;;;;;;13.25;7.65;;;17.80;99.90;;;;;;5064158;28;20060;-58
2023/06/22 20:45:34;;;;;;;13.07;7.75;;;17.80;99.90;;;;;;5066525;28;20032;-57
2023/06/22 20:48:00;;;;;;;15.60;8.50;;;17.70;99.90;;;;;;5058506;28;20034;-58
2023/06/22 20:50:30;;;;;;;13.80;8.48;;;17.70;99.90;;;;;;5065000;28;20029;-58
2023/06/22 20:52:59;;;;;;;15.63;8.98;;;17.70;99.90;;;;;;5048965;28;20036;-57
2023/06/22 20:55:26;;;;;;;15.07;8.53;;;17.70;99.90;;;;;;5048448;28;20033;-58
2023/06/22 20:57:52;;;;;;;18.13;9.75;;;17.70;99.90;;;;;;5049041;28;20108;-57
2023/06/22 21:00:18;;;;;;;14.70;9.48;;;17.70;99.90;;;;;;5048672;28;20051;-57
2023/06/22 21:02:44;;;;;;;24.48;11.18;;;17.80;99.90;;;;;;5053768;28;20020;-58
2023/06/22 21:05:10;;;;;;;28.50;12.70;;;17.70;99.90;;;;;;5068680;28;20051;-57
2023/06/22 21:07:37;;;;;;;20.48;10.55;;;17.80;99.90;;;;;;5050527;28;20040;-57
2023/06/22 21:10:03;;;;;;;23.13;11.82;;;17.80;99.90;;;;;;5068605;28;20056;-57
2023/06/22 21:12:29;;;;;;;20.85;11.60;;;17.80;99.90;;;;;;5068975;28;20074;-58
2023/06/22 21:14:54;;;;;;;17.92;10.43;;;17.80;99.90;;;;;;5068832;28;20426;-58
2023/06/22 21:17:21;;;;;;;19.88;11.30;;;17.80;99.90;;;;;;5068178;28;20387;-57
2023/06/22 21:19:47;;;;;;;20.05;12.38;;;17.80;99.90;;;;;;5050295;28;20032;-58
2023/06/22 21:22:13;;;;;;;26.75;13.90;;;17.80;99.90;;;;;;5068495;28;20467;-57
2023/06/22 21:24:38;;;;;;;22.08;12.57;;;17.80;99.90;;;;;;5050563;28;20471;-57
2023/06/22 21:27:04;;;;;;;23.50;12.10;;;17.90;99.90;;;;;;5068059;28;20112;-58
2023/06/22 21:29:29;;;;;;;22.13;13.10;;;17.80;99.90;;;;;;5068230;28;20028;-57
2023/06/22 21:31:55;;;;;;;23.00;12.80;;;17.80;99.90;;;;;;5068219;28;20501;-57
2023/06/22 21:34:25;;;;;;;20.98;12.50;;;17.80;99.90;;;;;;5068679;28;20032;-57
2023/06/22 21:36:50;;;;;;;29.30;15.13;;;17.80;99.90;;;;;;5068019;28;20044;-57
2023/06/22 21:39:16;;;;;;;30.88;15.77;;;17.80;99.90;;;;;;5068309;28;20067;-57
2023/06/22 21:41:41;;;;;;;20.65;12.88;;;17.80;99.90;;;;;;5049757;28;20094;-57
2023/06/22 21:44:06;;;;;;;29.15;15.85;;;17.80;99.90;;;;;;5068301;28;20082;-57
2023/06/22 21:46:32;;;;;;;20.95;12.52;;;17.80;99.90;;;;;;5067606;28;20040;-57
2023/06/22 21:48:57;;;;;;;28.27;14.95;;;17.80;99.90;;;;;;5070702;28;20039;-57
2023/06/22 21:51:23;;;;;;;21.45;13.68;;;17.80;99.90;;;;;;5072009;28;20079;-57
2023/06/22 21:53:49;;;;;;;19.25;12.55;;;17.80;99.90;;;;;;5053361;28;20031;-57
2023/06/22 21:56:14;;;;;;;36.97;16.42;;;17.80;99.90;;;;;;5071273;28;20024;-57
2023/06/22 21:58:40;;;;;;;27.92;14.68;;;17.80;99.90;;;;;;5072032;28;20036;-57
2023/06/22 22:01:05;;;;;;;26.08;13.80;;;17.70;99.90;;;;;;5071838;28;20040;-57
2023/06/22 22:03:31;;;;;;;21.90;13.40;;;17.70;99.90;;;;;;5071626;28;20052;-57
2023/06/22 22:05:56;;;;;;;24.88;13.90;;;17.70;99.90;;;;;;5053289;28;20089;-57